createdAt,value
2023-02-16T00:01:21.764Z,20.53
2023-02-16T00:03:49.707Z,20.10
2023-02-16T00:06:17.636Z,18.37
2023-02-16T00:08:46.128Z,17.57
2023-02-16T00:11:36.249Z,18.63
2023-02-16T00:14:04.782Z,18.60
2023-02-16T00:16:32.075Z,20.33
2023-02-16T00:18:59.360Z,18.50
2023-02-16T00:21:26.677Z,19.97
2023-02-16T00:23:54.181Z,20.00
2023-02-16T00:26:24.232Z,20.40
2023-02-16T00:28:53.724Z,21.10
2023-02-16T00:31:22.424Z,17.43
2023-02-16T00:33:50.190Z,18.87
2023-02-16T00:36:17.504Z,19.37
2023-02-16T00:38:44.778Z,19.30
2023-02-16T00:41:31.807Z,17.70
2023-02-16T00:43:59.869Z,18.00
2023-02-16T00:46:27.277Z,17.47
2023-02-16T00:48:54.595Z,19.20
2023-02-16T00:51:26.190Z,17.57
2023-02-16T00:53:53.801Z,19.60
2023-02-16T00:56:21.886Z,17.77
2023-02-16T00:58:52.361Z,21.83
2023-02-16T01:01:24.004Z,19.47
2023-02-16T01:03:51.341Z,18.80
2023-02-16T01:06:36.659Z,20.23
2023-02-16T01:09:31.617Z,18.57
2023-02-16T01:11:59.504Z,20.07
2023-02-16T01:14:27.022Z,18.30
2023-02-16T01:16:54.995Z,17.97
2023-02-16T01:19:22.251Z,19.77
2023-02-16T01:21:49.660Z,19.83
2023-02-16T01:24:16.949Z,20.20
2023-02-16T01:26:48.753Z,21.87
2023-02-16T01:29:18.252Z,20.83
2023-02-16T01:31:46.295Z,21.40
2023-02-16T01:34:14.559Z,20.50
2023-02-16T01:36:44.444Z,20.23
2023-02-16T01:39:13.339Z,19.47
2023-02-16T01:41:54.174Z,20.33
2023-02-16T01:44:24.411Z,18.97
2023-02-16T01:46:56.284Z,17.47
2023-02-16T01:49:24.406Z,20.40
2023-02-16T01:51:56.708Z,16.60
2023-02-16T01:54:37.235Z,18.77
2023-02-16T01:57:11.946Z,18.00
2023-02-16T01:59:57.026Z,16.70
2023-02-16T02:02:26.308Z,17.77
2023-02-16T02:05:16.811Z,18.40
2023-02-16T02:07:50.051Z,15.50
2023-02-16T02:10:28.321Z,17.70
2023-02-16T02:12:59.421Z,17.40
2023-02-16T02:15:30.732Z,15.47
2023-02-16T02:17:58.247Z,17.90
2023-02-16T02:20:58.148Z,18.40
2023-02-16T02:23:39.873Z,18.93
2023-02-16T02:26:43.049Z,17.87
2023-02-16T02:29:46.424Z,18.13
2023-02-16T02:32:22.803Z,17.23
2023-02-16T02:35:03.198Z,18.50
2023-02-16T02:37:43.752Z,19.27
2023-02-16T02:40:16.435Z,18.13
2023-02-16T02:42:55.011Z,17.40
2023-02-16T02:45:24.754Z,12.40
2023-02-16T02:47:52.689Z,14.33
2023-02-16T02:51:03.406Z,16.50
2023-02-16T02:53:31.319Z,17.23
2023-02-16T02:56:19.165Z,15.57
2023-02-16T02:59:08.360Z,19.30
2023-02-16T03:01:38.983Z,16.83
2023-02-16T03:04:10.831Z,16.60
2023-02-16T03:06:43.707Z,17.07
2023-02-16T03:09:13.917Z,17.77
2023-02-16T03:12:00.408Z,18.67
2023-02-16T03:14:31.967Z,19.60
2023-02-16T03:17:19.696Z,19.07
2023-02-16T03:20:09.189Z,18.77
2023-02-16T03:22:55.692Z,17.90
2023-02-16T03:25:43.502Z,16.87
2023-02-16T03:28:29.988Z,19.87
2023-02-16T03:30:57.674Z,27.33
2023-02-16T03:33:26.507Z,17.77
2023-02-16T03:35:55.009Z,20.47
2023-02-16T03:38:22.744Z,18.13
2023-02-16T03:40:51.775Z,15.90
2023-02-16T03:43:19.036Z,19.57
2023-02-16T03:45:46.415Z,17.30
2023-02-16T03:48:13.698Z,15.87
2023-02-16T03:50:41.021Z,14.87
2023-02-16T03:53:09.004Z,14.33
2023-02-16T03:55:38.093Z,17.97
2023-02-16T03:58:06.585Z,18.30
2023-02-16T04:00:35.042Z,15.10
2023-02-16T04:03:02.763Z,15.90
2023-02-16T04:05:30.371Z,17.73
2023-02-16T04:07:57.750Z,33.50
2023-02-16T04:10:25.963Z,33.43
2023-02-16T04:12:53.127Z,26.50
2023-02-16T04:15:22.814Z,22.40
2023-02-16T04:17:50.307Z,27.33
2023-02-16T04:20:20.233Z,24.20
2023-02-16T04:22:48.162Z,23.53
2023-02-16T04:25:16.422Z,22.63
2023-02-16T04:27:44.906Z,21.00
2023-02-16T04:30:15.018Z,22.63
2023-02-16T04:32:42.401Z,22.10
2023-02-16T04:35:09.972Z,19.03
2023-02-16T04:37:37.268Z,19.30
2023-02-16T04:40:05.640Z,18.23
2023-02-16T04:42:32.934Z,17.00
2023-02-16T04:45:00.851Z,16.10
2023-02-16T04:47:28.172Z,17.90
2023-02-16T04:49:55.466Z,21.20
2023-02-16T04:52:22.743Z,26.30
2023-02-16T04:54:50.050Z,27.60
2023-02-16T04:57:18.682Z,18.50
2023-02-16T04:59:45.962Z,21.67
2023-02-16T05:02:13.884Z,20.83
2023-02-16T05:04:41.802Z,16.40
2023-02-16T05:07:09.112Z,16.67
2023-02-16T05:09:36.361Z,19.73
2023-02-16T05:12:21.601Z,18.13
2023-02-16T05:14:49.240Z,17.70
2023-02-16T05:17:19.225Z,17.20
2023-02-16T05:19:48.217Z,18.97
2023-02-16T05:22:16.023Z,27.30
2023-02-16T05:24:43.715Z,27.40
2023-02-16T05:27:13.858Z,24.30
2023-02-16T05:29:41.311Z,25.03
2023-02-16T05:32:08.687Z,23.43
2023-02-16T05:34:37.591Z,21.90
2023-02-16T05:37:04.981Z,31.60
2023-02-16T05:39:32.309Z,25.77
2023-02-16T05:41:59.599Z,25.27
2023-02-16T05:44:27.121Z,22.13
2023-02-16T05:46:54.448Z,22.03
2023-02-16T05:49:21.809Z,26.30
2023-02-16T05:51:49.788Z,37.60
2023-02-16T05:54:17.119Z,41.10
2023-02-16T05:56:45.647Z,23.53
2023-02-16T05:59:13.364Z,21.63
2023-02-16T06:01:40.627Z,21.60
2023-02-16T06:04:08.939Z,21.50
2023-02-16T06:06:37.306Z,24.87
2023-02-16T06:09:06.413Z,22.23
2023-02-16T06:11:36.933Z,19.27
2023-02-16T06:14:06.378Z,18.70
2023-02-16T06:16:34.854Z,20.60
2023-02-16T06:19:02.852Z,18.37
2023-02-16T06:21:30.511Z,18.20
2023-02-16T06:23:58.094Z,17.80
2023-02-16T06:26:26.673Z,18.17
2023-02-16T06:28:54.309Z,17.07
2023-02-16T06:31:21.840Z,16.03
2023-02-16T06:33:49.196Z,17.70
2023-02-16T06:36:16.765Z,18.60
2023-02-16T06:38:44.762Z,16.03
2023-02-16T06:41:12.311Z,19.40
2023-02-16T06:43:40.208Z,16.93
2023-02-16T06:46:07.489Z,18.07
2023-02-16T06:48:34.805Z,16.77
2023-02-16T06:51:02.447Z,18.33
2023-02-16T06:53:29.882Z,16.13
2023-02-16T06:55:57.158Z,16.90
2023-02-16T06:58:24.458Z,19.30
2023-02-16T07:00:55.183Z,19.87
2023-02-16T07:03:22.492Z,20.97
2023-02-16T07:05:50.013Z,18.10
2023-02-16T07:08:17.408Z,14.10
2023-02-16T07:10:50.203Z,17.50
2023-02-16T07:13:17.799Z,17.93
2023-02-16T07:15:45.198Z,24.10
2023-02-16T07:18:13.463Z,21.93
2023-02-16T07:20:41.193Z,20.37
2023-02-16T07:23:08.528Z,19.23
2023-02-16T07:25:37.143Z,20.13
2023-02-16T07:28:04.651Z,24.20
2023-02-16T07:30:32.233Z,26.00
2023-02-16T07:32:59.570Z,29.00
2023-02-16T07:35:27.916Z,25.73
2023-02-16T07:37:55.190Z,35.00
2023-02-16T07:40:22.482Z,33.33
2023-02-16T07:42:49.745Z,24.20
2023-02-16T07:45:17.231Z,25.73
2023-02-16T07:47:44.536Z,23.37
2023-02-16T07:50:12.415Z,19.57
2023-02-16T07:52:40.373Z,19.57
2023-02-16T07:55:08.046Z,24.57
2023-02-16T07:57:38.388Z,19.93
2023-02-16T08:00:07.125Z,22.80
2023-02-16T08:02:34.854Z,18.70
2023-02-16T08:05:02.557Z,19.60
2023-02-16T08:07:29.894Z,23.03
2023-02-16T08:09:58.240Z,20.67
2023-02-16T08:12:25.512Z,23.47
2023-02-16T08:14:52.965Z,27.80
2023-02-16T08:17:20.289Z,24.97
2023-02-16T08:19:47.630Z,24.67
2023-02-16T08:22:15.078Z,24.10
2023-02-16T08:24:42.763Z,22.47
2023-02-16T08:27:10.816Z,19.63
2023-02-16T08:29:38.132Z,21.47
2023-02-16T08:32:07.123Z,22.40
2023-02-16T08:34:34.934Z,18.73
2023-02-16T08:37:02.266Z,20.60
2023-02-16T08:39:32.130Z,21.33
2023-02-16T08:42:00.772Z,18.03
2023-02-16T08:44:29.617Z,19.30
2023-02-16T08:46:59.962Z,20.10
2023-02-16T08:49:27.636Z,22.27
2023-02-16T08:51:56.524Z,20.17
2023-02-16T08:54:27.445Z,21.47
2023-02-16T08:56:55.056Z,20.67
2023-02-16T08:59:23.800Z,21.90
2023-02-16T09:01:51.924Z,23.53
2023-02-16T09:04:20.169Z,19.00
2023-02-16T09:06:48.231Z,20.20
2023-02-16T09:09:16.044Z,19.40
2023-02-16T09:11:43.378Z,19.70
2023-02-16T09:14:10.714Z,20.90
2023-02-16T09:16:43.157Z,18.70
2023-02-16T09:19:11.652Z,19.57
2023-02-16T09:21:39.845Z,18.50
2023-02-16T09:24:07.574Z,20.60
2023-02-16T09:26:37.815Z,18.57
2023-02-16T09:29:06.319Z,18.80
2023-02-16T09:31:36.624Z,19.40
2023-02-16T09:34:07.351Z,20.40
2023-02-16T09:36:35.566Z,19.53
2023-02-16T09:39:02.883Z,21.27
2023-02-16T09:41:37.497Z,20.13
2023-02-16T09:44:17.441Z,19.43
2023-02-16T09:46:46.322Z,20.70
2023-02-16T09:49:23.794Z,18.73
2023-02-16T09:52:00.548Z,19.90
2023-02-16T09:54:39.096Z,20.00
2023-02-16T09:57:12.495Z,19.83
2023-02-16T09:59:48.666Z,20.70
2023-02-16T10:02:41.337Z,17.90
2023-02-16T10:05:23.771Z,19.53
2023-02-16T10:08:06.263Z,19.30
2023-02-16T10:10:44.594Z,20.47
2023-02-16T10:13:22.486Z,20.57
2023-02-16T10:15:53.941Z,19.50
2023-02-16T10:18:27.728Z,21.73
2023-02-16T10:20:59.381Z,21.23
2023-02-16T10:23:40.263Z,21.03
2023-02-16T10:26:18.414Z,20.07
2023-02-16T10:28:48.371Z,19.63
2023-02-16T10:31:23.963Z,22.07
2023-02-16T10:34:23.022Z,21.10
2023-02-16T10:37:18.784Z,20.80
2023-02-16T10:39:52.888Z,20.40
2023-02-16T10:42:27.596Z,19.40
2023-02-16T10:45:02.042Z,17.90
2023-02-16T10:47:35.075Z,18.60
2023-02-16T10:50:02.407Z,20.87
2023-02-16T10:52:36.871Z,18.37
2023-02-16T10:55:06.246Z,18.20
2023-02-16T10:57:33.843Z,16.90
2023-02-16T11:00:04.807Z,17.50
2023-02-16T11:02:38.389Z,18.17
2023-02-16T11:05:31.511Z,16.57
2023-02-16T11:08:01.232Z,16.17
2023-02-16T11:10:38.508Z,16.90
2023-02-16T11:13:07.816Z,18.40
2023-02-16T11:15:38.114Z,16.73
2023-02-16T11:18:08.692Z,15.90
2023-02-16T11:20:53.984Z,16.73
2023-02-16T11:23:24.545Z,17.50
2023-02-16T11:25:58.214Z,16.73
2023-02-16T11:28:32.654Z,16.37
2023-02-16T11:31:12.008Z,15.60
2023-02-16T11:33:41.044Z,14.90
2023-02-16T11:36:21.255Z,16.50
2023-02-16T11:38:58.264Z,17.37
2023-02-16T11:41:27.881Z,16.30
2023-02-16T11:43:56.204Z,12.97
2023-02-16T11:46:24.029Z,16.77
2023-02-16T11:48:51.732Z,15.33
2023-02-16T11:51:32.371Z,16.70
2023-02-16T11:54:03.138Z,16.30
2023-02-16T11:56:33.188Z,17.63
2023-02-16T11:59:07.496Z,17.37
2023-02-16T12:01:48.552Z,15.90
2023-02-16T12:04:28.389Z,16.53
2023-02-16T12:07:07.720Z,17.43
2023-02-16T12:09:45.529Z,18.53
2023-02-16T12:12:16.842Z,17.70
2023-02-16T12:14:56.340Z,15.73
2023-02-16T12:17:35.031Z,15.50
2023-02-16T12:20:16.514Z,16.50
2023-02-16T12:22:48.607Z,18.17
2023-02-16T12:25:29.245Z,17.47
2023-02-16T12:28:05.904Z,15.50
2023-02-16T12:30:45.394Z,19.70
2023-02-16T12:33:40.849Z,20.73
2023-02-16T12:36:41.277Z,20.13
2023-02-16T12:39:17.468Z,18.87
2023-02-16T12:41:58.505Z,16.77
2023-02-16T12:44:35.701Z,18.67
2023-02-16T12:47:07.505Z,15.90
2023-02-16T12:49:43.830Z,18.67
2023-02-16T12:52:21.617Z,17.13
2023-02-16T12:54:52.663Z,19.53
2023-02-16T12:57:24.280Z,16.80
2023-02-16T12:59:57.022Z,16.43
2023-02-16T13:02:28.721Z,16.53
2023-02-16T13:05:02.919Z,17.70
2023-02-16T13:07:35.274Z,15.90
2023-02-16T13:10:07.330Z,16.43
2023-02-16T13:12:40.042Z,15.80
2023-02-16T13:15:13.873Z,16.80
2023-02-16T13:17:46.095Z,17.50
2023-02-16T13:20:16.081Z,15.90
2023-02-16T13:23:04.281Z,17.57
2023-02-16T13:26:10.888Z,15.07
2023-02-16T13:28:53.067Z,15.13
2023-02-16T13:31:37.882Z,15.43
2023-02-16T13:34:42.425Z,15.23
2023-02-16T13:37:36.220Z,13.37
2023-02-16T13:40:47.235Z,15.37
2023-02-16T13:43:25.348Z,14.77
2023-02-16T13:45:53.882Z,16.43
2023-02-16T13:48:28.655Z,16.03
2023-02-16T13:50:58.937Z,16.67
2023-02-16T13:53:30.643Z,13.87
2023-02-16T13:56:21.976Z,15.27
2023-02-16T13:58:49.603Z,14.03
2023-02-16T14:01:38.604Z,13.77
2023-02-16T14:04:11.982Z,14.50
2023-02-16T14:06:42.008Z,15.00
2023-02-16T14:09:33.314Z,15.00
2023-02-16T14:12:15.559Z,15.07
2023-02-16T14:14:55.115Z,14.23
2023-02-16T14:17:27.122Z,16.80
2023-02-16T14:19:57.324Z,16.23
2023-02-16T14:22:41.223Z,14.07
2023-02-16T14:25:33.865Z,11.10
2023-02-16T14:28:03.007Z,14.20
2023-02-16T14:30:34.834Z,15.40
2023-02-16T14:33:16.028Z,14.90
2023-02-16T14:35:46.544Z,13.23
2023-02-16T14:38:21.792Z,14.63
2023-02-16T14:40:54.730Z,14.20
2023-02-16T14:43:31.080Z,14.80
2023-02-16T14:46:32.049Z,14.37
2023-02-16T14:49:27.889Z,14.70
2023-02-16T14:52:36.478Z,15.63
2023-02-16T14:55:29.181Z,14.23
2023-02-16T14:58:03.325Z,15.80
2023-02-16T15:00:39.852Z,19.17
2023-02-16T15:03:17.241Z,19.77
2023-02-16T15:05:52.144Z,15.33
2023-02-16T15:08:23.068Z,17.20
2023-02-16T15:10:53.512Z,16.17
2023-02-16T15:13:22.273Z,17.43
2023-02-16T15:15:52.635Z,16.50
2023-02-16T15:18:23.272Z,16.43
2023-02-16T15:20:53.611Z,15.10
2023-02-16T15:23:23.344Z,17.43
2023-02-16T15:25:57.929Z,18.30
2023-02-16T15:28:28.669Z,17.33
2023-02-16T15:30:58.394Z,15.03
2023-02-16T15:33:37.267Z,17.37
2023-02-16T15:36:08.209Z,17.87
2023-02-16T15:38:38.321Z,18.20
2023-02-16T15:41:08.230Z,16.43
2023-02-16T15:43:37.782Z,17.67
2023-02-16T15:46:08.310Z,16.70
2023-02-16T15:48:37.657Z,23.30
2023-02-16T15:51:14.200Z,29.37
2023-02-16T15:53:51.575Z,28.87
2023-02-16T15:56:33.703Z,25.67
2023-02-16T15:59:03.156Z,23.67
2023-02-16T16:01:33.046Z,19.57
2023-02-16T16:04:04.143Z,20.90
2023-02-16T16:06:39.885Z,22.10
2023-02-16T16:09:17.402Z,18.77
2023-02-16T16:11:44.921Z,17.47
2023-02-16T16:14:13.981Z,19.00
2023-02-16T16:16:42.593Z,17.13
2023-02-16T16:19:17.040Z,16.73
2023-02-16T16:21:51.211Z,18.13
2023-02-16T16:24:33.487Z,16.13
2023-02-16T16:27:03.704Z,17.77
2023-02-16T16:29:34.884Z,19.57
2023-02-16T16:32:03.344Z,22.27
2023-02-16T16:34:37.047Z,20.10
2023-02-16T16:37:06.948Z,18.53
2023-02-16T16:39:39.721Z,18.30
2023-02-16T16:42:18.136Z,15.80
2023-02-16T16:44:53.846Z,17.03
2023-02-16T16:47:28.413Z,16.70
2023-02-16T16:49:58.089Z,17.37
2023-02-16T16:52:47.481Z,17.23
2023-02-16T16:55:25.473Z,18.47
2023-02-16T16:57:54.698Z,15.90
2023-02-16T17:00:24.396Z,15.53
2023-02-16T17:02:52.238Z,15.40
2023-02-16T17:05:20.350Z,16.10
2023-02-16T17:07:49.413Z,14.57
2023-02-16T17:10:19.091Z,16.33
2023-02-16T17:12:50.922Z,15.07
2023-02-16T17:15:41.914Z,15.77
2023-02-16T17:18:13.960Z,18.10
2023-02-16T17:20:41.829Z,15.60
2023-02-16T17:23:11.534Z,17.27
2023-02-16T17:25:39.253Z,19.43
2023-02-16T17:28:07.430Z,18.70
2023-02-16T17:30:35.599Z,20.00
2023-02-16T17:33:03.905Z,18.57
2023-02-16T17:35:32.601Z,18.90
2023-02-16T17:38:05.956Z,19.37
2023-02-16T17:40:33.511Z,18.90
2023-02-16T17:43:01.089Z,18.67
2023-02-16T17:45:29.137Z,18.93
2023-02-16T17:47:56.611Z,19.30
2023-02-16T17:50:25.396Z,18.07
2023-02-16T17:52:56.408Z,18.70
2023-02-16T17:55:23.793Z,19.07
2023-02-16T17:57:51.147Z,19.87
2023-02-16T18:00:20.028Z,18.63
2023-02-16T18:02:48.218Z,18.87
2023-02-16T18:05:15.719Z,17.63
2023-02-16T18:07:43.037Z,17.70
2023-02-16T18:10:18.248Z,20.00
2023-02-16T18:12:45.711Z,21.83
2023-02-16T18:15:13.451Z,21.13
2023-02-16T18:17:40.728Z,19.23
2023-02-16T18:20:14.087Z,18.43
2023-02-16T18:22:41.581Z,17.60
2023-02-16T18:25:09.378Z,16.27
2023-02-16T18:27:36.704Z,16.87
2023-02-16T18:30:05.568Z,16.40
2023-02-16T18:32:32.945Z,14.00
2023-02-16T18:35:00.575Z,14.60
2023-02-16T18:37:28.826Z,16.53
2023-02-16T18:39:56.299Z,17.17
2023-02-16T18:42:23.732Z,17.73
2023-02-16T18:44:51.354Z,18.03
2023-02-16T18:47:18.744Z,17.10
2023-02-16T18:49:48.136Z,18.87
2023-02-16T18:52:17.152Z,17.20
2023-02-16T18:54:45.440Z,15.20
2023-02-16T18:57:12.964Z,17.33
2023-02-16T18:59:40.904Z,17.60
2023-02-16T19:02:11.152Z,19.57
2023-02-16T19:04:39.030Z,19.30
2023-02-16T19:07:07.138Z,16.50
2023-02-16T19:09:34.854Z,17.87
2023-02-16T19:12:03.318Z,17.17
2023-02-16T19:14:30.664Z,14.47
2023-02-16T19:16:58.209Z,14.50
2023-02-16T19:19:25.619Z,17.90
2023-02-16T19:21:53.225Z,16.60
2023-02-16T19:24:20.741Z,16.20
2023-02-16T19:26:48.253Z,16.20
2023-02-16T19:29:16.446Z,17.67
2023-02-16T19:31:44.051Z,18.73
2023-02-16T19:34:12.194Z,15.07
2023-02-16T19:36:39.757Z,15.60
2023-02-16T19:39:07.312Z,17.03
2023-02-16T19:41:37.547Z,15.70
2023-02-16T19:44:05.583Z,16.50
2023-02-16T19:46:34.702Z,16.70
2023-02-16T19:49:02.501Z,15.97
2023-02-16T19:51:32.447Z,15.37
2023-02-16T19:54:00.254Z,17.20
2023-02-16T19:56:28.073Z,17.57
2023-02-16T19:58:57.854Z,18.90
2023-02-16T20:01:27.149Z,17.60
2023-02-16T20:03:57.120Z,20.20
2023-02-16T20:06:27.160Z,19.33
2023-02-16T20:08:55.918Z,18.70
2023-02-16T20:11:25.435Z,17.97
2023-02-16T20:13:53.750Z,16.57
2023-02-16T20:16:22.287Z,17.57
2023-02-16T20:18:50.138Z,18.83
2023-02-16T20:21:20.819Z,18.47
2023-02-16T20:23:49.031Z,19.17
2023-02-16T20:26:18.439Z,17.33
2023-02-16T20:28:46.335Z,18.47
2023-02-16T20:31:15.437Z,17.77
2023-02-16T20:33:43.081Z,17.90
2023-02-16T20:36:11.172Z,17.70
2023-02-16T20:38:39.361Z,18.20
2023-02-16T20:41:07.149Z,18.53
2023-02-16T20:43:34.860Z,17.60
2023-02-16T20:46:03.505Z,16.73
2023-02-16T20:48:31.659Z,18.57
2023-02-16T20:51:01.861Z,18.30
2023-02-16T20:53:29.717Z,17.87
2023-02-16T20:56:02.438Z,17.00
2023-02-16T20:58:30.348Z,17.33
2023-02-16T21:00:57.809Z,18.13
2023-02-16T21:03:25.245Z,17.60
2023-02-16T21:05:52.529Z,18.07
2023-02-16T21:08:19.849Z,17.93
2023-02-16T21:10:47.112Z,16.77
2023-02-16T21:13:17.897Z,18.90
2023-02-16T21:15:45.192Z,19.60
2023-02-16T21:18:12.542Z,18.40
2023-02-16T21:20:40.137Z,18.83
2023-02-16T21:23:07.476Z,17.80
2023-02-16T21:25:35.372Z,24.93
2023-02-16T21:28:03.057Z,20.10
2023-02-16T21:30:31.224Z,19.03
2023-02-16T21:32:58.608Z,21.73
2023-02-16T21:35:26.222Z,19.73
2023-02-16T21:37:53.502Z,17.87
2023-02-16T21:40:38.936Z,18.77
2023-02-16T21:43:06.194Z,17.63
2023-02-16T21:45:34.156Z,17.80
2023-02-16T21:48:19.963Z,22.17
2023-02-16T21:50:47.243Z,20.07
2023-02-16T21:53:14.533Z,18.23
2023-02-16T21:55:59.932Z,20.00
2023-02-16T21:58:29.362Z,21.50
2023-02-16T22:00:57.326Z,19.87
2023-02-16T22:03:25.174Z,20.77
2023-02-16T22:05:52.520Z,23.43
2023-02-16T22:08:19.780Z,20.57
2023-02-16T22:10:47.105Z,17.73
2023-02-16T22:13:14.396Z,18.90
2023-02-16T22:15:41.684Z,17.60
2023-02-16T22:18:09.689Z,22.73
2023-02-16T22:20:36.970Z,18.20
2023-02-16T22:23:04.361Z,15.50
2023-02-16T22:25:31.700Z,15.47
2023-02-16T22:27:58.937Z,14.43
2023-02-16T22:30:26.266Z,15.93
2023-02-16T22:32:53.587Z,15.80
2023-02-16T22:35:21.572Z,15.20
2023-02-16T22:37:48.862Z,13.97
2023-02-16T22:40:16.646Z,15.83
2023-02-16T22:42:43.960Z,15.53
2023-02-16T22:45:11.508Z,16.60
2023-02-16T22:47:38.850Z,16.43
2023-02-16T22:50:07.311Z,15.90
2023-02-16T22:52:37.413Z,18.23
2023-02-16T22:55:05.128Z,15.60
2023-02-16T22:57:36.359Z,15.87
2023-02-16T23:00:05.329Z,15.17
2023-02-16T23:02:32.683Z,15.10
2023-02-16T23:04:59.957Z,15.63
2023-02-16T23:07:27.370Z,14.23
2023-02-16T23:09:55.427Z,14.80
2023-02-16T23:12:22.783Z,12.90
2023-02-16T23:14:50.369Z,13.00
2023-02-16T23:17:17.774Z,12.87
2023-02-16T23:19:45.145Z,12.17
2023-02-16T23:22:12.462Z,12.43
2023-02-16T23:24:40.986Z,13.40
2023-02-16T23:27:09.056Z,12.40
2023-02-16T23:29:36.334Z,12.97
2023-02-16T23:32:05.882Z,12.57
2023-02-16T23:34:33.174Z,13.00
2023-02-16T23:37:00.460Z,13.70
2023-02-16T23:39:27.729Z,13.87
2023-02-16T23:41:56.020Z,13.60
2023-02-16T23:44:24.003Z,12.77
2023-02-16T23:46:51.243Z,13.13
2023-02-16T23:49:18.565Z,12.80
2023-02-16T23:51:45.881Z,12.70
2023-02-16T23:54:13.168Z,13.40
2023-02-16T23:56:40.778Z,11.90
2023-02-16T23:59:08.099Z,13.00
